Main page
METAR-TAF:

METAR-TAF

Airports :

Agen La Garenne Airport

Agen, France

latitude: 44-11N, longitude: 000-36E, elevation: 61 m

Current weather observation

The report was made 10 minutes ago, at 01:30 UTC
Wind 6 kt from the West
Temperature 20°C
Humidity 88%
Pressure 1020 hPa
Visibility 10 km or more
no clouds below 1500 m and no cumulonimbus

METAR: LFBA 220130Z AUTO 27006KT CAVOK 20/18 Q1020

Time: 03:40 (01:40 UTC)

Forecast

The report was made 6 hours and 24 minutes ago, at 19:16 UTC
Forecast valid from 21 at 19 UTC to 21 at 24 UTC
Wind 6 kt from the Northwest
Visibility 10 km or more
no clouds below 1500 m and no cumulonimbus
Probability 30% :
Temporary
from 21 at 19 UTC to 21 at 21 UTC
Broken clouds at a height of 2000 ft, Cumulonimbus.
thunderstorm, light rain

TAF: LFBA 211916Z 2119/2124 32006KT CAVOK PROB30 TEMPO 2119/2121 -TSRA BKN020CB

Weather observations and forecasts of more than 4000 airports (METAR and TAF reports).

The available stations are represented by yellow and red dots on the map.

Hover mouse over dot to see the name of the station.

Then click to see weather observations and forecasts.

To change the map : click on the green buttons with a black cross to zoom in, on the green button with a dash to zoom out, or on the green arrows for adjacent maps.


METAR-TAF: